Stations météo

Publicité
Vannes/Sene, France (7210): Température de l'air & dewpoint: 06.12.2018 20:00:00 - 12.12.2018 20:00:00 (CET)Vannes/Sene, France (7210): Vitesse du vent & gusts: 06.12.2018 20:00:00 - 12.12.2018 20:00:00 (CET)Vannes/Sene, France (7210): Direction du vent: 06.12.2018 20:00:00 - 12.12.2018 20:00:00 (CET)Vannes/Sene, France (7210): Ensoleillement: 06.12.2018 20:00:00 - 12.12.2018 20:00:00 (CET)Vannes/Sene, France (7210): Quantités de précipitations: 06.12.2018 20:00:00 - 12.12.2018 20:00:00 (CET)
Date & Time tt [°C] td [°C] ff [km/h] ff [knt] fx [km/h] fx [knt] dd sd [min] rr [mm]
12.12.2018 20:00:00 - - - - - - - - -
12.12.2018 19:00:00 3,4 2,7 8 4 13 7 E 0 -
12.12.2018 18:00:00 4,5 3,3 9 5 26 14 E 0 0,0
12.12.2018 17:00:00 5,8 4,3 15 8 28 15 ESE 0 0,0
12.12.2018 16:00:00 6,6 4,9 15 8 24 13 E 30 0,0
12.12.2018 15:00:00 6,6 5,4 9 5 18 10 E 0 0,0
12.12.2018 14:00:00 6,1 5,2 8 4 15 8 ESE 0 0,0
12.12.2018 13:00:00 5,7 5,0 11 6 22 12 E 0 -
12.12.2018 12:00:00 5,8 4,9 15 8 22 12 E 6 0,0
12.12.2018 11:00:00 5,2 4,8 11 6 22 12 E 0 0,0
12.12.2018 10:00:00 5,1 4,8 8 4 18 10 E 0 0,0
12.12.2018 09:00:00 5,0 4,7 9 5 16 9 E 0 0,0
12.12.2018 08:00:00 5,0 4,7 8 4 15 8 E 0 0,0
12.12.2018 07:00:00 4,9 4,6 8 4 13 7 E 0 -
12.12.2018 06:00:00 4,9 4,6 4 2 18 10 ESE 0 0,2
12.12.2018 05:00:00 4,7 4,4 13 7 29 16 ESE 0 0,6
12.12.2018 04:00:00 4,7 4,4 13 7 24 13 E 0 2,0
12.12.2018 03:00:00 4,7 4,1 13 7 26 14 ESE 0 1,0
12.12.2018 02:00:00 4,7 4,1 18 10 31 17 ESE 0 0,2
12.12.2018 01:00:00 5,1 4,5 18 10 29 16 ESE 0 -
12.12.2018 00:00:00 5,6 5,2 18 10 34 18 ESE 0 0,0
11.12.2018 23:00:00 5,7 5,3 15 8 22 12 E 0 0,0
11.12.2018 22:00:00 5,6 5,0 8 4 21 11 ESE 0 0,0
11.12.2018 21:00:00 5,4 4,8 5 3 9 5 E 0 0,0
11.12.2018 20:00:00 6,2 5,2 4 2 13 7 SE 0 0,0
11.12.2018 19:00:00 7,3 5,9 9 5 21 11 ESE 0 -
11.12.2018 18:00:00 7,0 5,8 9 5 16 9 ESE 0 0,0
11.12.2018 17:00:00 8,2 6,2 9 5 21 11 SE 0 0,0
11.12.2018 16:00:00 9,8 6,5 15 8 24 13 SSE 36 0,0
11.12.2018 15:00:00 9,8 6,9 13 7 22 12 SSE 6 0,0
11.12.2018 14:00:00 9,5 7,3 15 8 26 14 SE 24 0,0
11.12.2018 13:00:00 9,7 7,5 13 7 24 13 SE 60 -
11.12.2018 12:00:00 8,3 7,1 13 7 21 11 SE 60 0,0
11.12.2018 11:00:00 6,5 6,2 11 6 18 10 SE 60 0,0
11.12.2018 10:00:00 4,5 4,5 8 4 13 7 E 6 0,0
11.12.2018 09:00:00 2,7 2,7 8 4 11 6 E 0 0,0
11.12.2018 08:00:00 2,6 2,6 5 3 11 6 E 0 0,0
11.12.2018 07:00:00 2,8 2,8 8 4 11 6 E 0 -
11.12.2018 06:00:00 1,4 1,4 4 2 9 5 ENE 0 0,0
11.12.2018 05:00:00 0,6 0,6 4 2 5 3 NE 0 0,0
11.12.2018 04:00:00 1,3 1,3 5 3 8 4 NE 0 0,0
11.12.2018 03:00:00 1,3 1,3 2 1 5 3 NNE 0 0,0
11.12.2018 02:00:00 1,9 1,8 4 2 5 3 NE 0 0,0
11.12.2018 01:00:00 2,1 2,0 4 2 5 3 NNE 0 -
11.12.2018 00:00:00 2,5 2,4 2 1 5 3 NNW 0 0,0
10.12.2018 23:00:00 2,9 2,6 4 2 5 3 NNE 0 0,0
10.12.2018 22:00:00 3,7 3,3 4 2 5 3 NNE 0 0,0
10.12.2018 21:00:00 4,3 3,9 4 2 9 5 ENE 0 0,0
10.12.2018 20:00:00 4,6 3,9 2 1 5 3 ENE 0 0,0
10.12.2018 19:00:00 6,0 4,8 4 2 4 2 SSE 0 -
10.12.2018 18:00:00 7,5 5,0 2 1 8 4 NW 0 0,0
10.12.2018 17:00:00 10,4 5,6 5 3 13 7 WNW 12 0,0
10.12.2018 16:00:00 12,3 5,9 5 3 15 8 WNW 48 0,0
10.12.2018 15:00:00 13,2 7,4 8 4 15 8 WSW 42 0,0
10.12.2018 14:00:00 12,5 7,4 5 3 15 8 WNW 24 0,0
10.12.2018 13:00:00 11,4 7,7 5 3 13 7 WSW 36 -
10.12.2018 12:00:00 10,4 7,6 4 2 13 7 W 48 0,0
10.12.2018 11:00:00 7,3 6,9 4 2 8 4 N 60 0,0
10.12.2018 10:00:00 3,6 3,5 0 0 4 2 N 0 0,0
10.12.2018 09:00:00 2,8 2,7 2 1 4 2 E 0 0,0
10.12.2018 08:00:00 2,6 2,3 2 1 8 4 E 0 0,0
10.12.2018 07:00:00 3,3 2,9 4 2 8 4 ENE 0 -
10.12.2018 06:00:00 3,5 2,9 5 3 8 4 ENE 0 0,0
10.12.2018 05:00:00 5,0 3,5 2 1 18 10 N 0 0,0
10.12.2018 04:00:00 7,0 5,5 9 5 16 9 W 0 0,0
10.12.2018 03:00:00 6,7 4,9 5 3 21 11 NW 0 0,0
10.12.2018 02:00:00 7,7 5,7 9 5 22 12 WNW 0 0,0
10.12.2018 01:00:00 7,8 5,6 9 5 22 12 WNW 0 -
10.12.2018 00:00:00 8,4 6,4 9 5 22 12 W 0 0,0
09.12.2018 23:00:00 8,3 5,9 8 4 24 13 WNW 0 0,0
09.12.2018 22:00:00 9,3 6,4 13 7 26 14 W 0 0,0
09.12.2018 21:00:00 9,5 6,6 15 8 26 14 W 0 0,0
09.12.2018 20:00:00 10,1 6,2 11 6 34 18 W 0 0,0
09.12.2018 19:00:00 10,4 6,2 13 7 31 17 WNW 0 -
09.12.2018 18:00:00 10,9 6,2 16 9 39 21 WNW 0 0,0
09.12.2018 17:00:00 11,5 6,4 16 9 41 22 NW 0 0,0
09.12.2018 16:00:00 12,5 6,7 21 11 54 29 NW 12 0,0
09.12.2018 15:00:00 13,3 6,2 24 13 57 31 WNW 30 0,0
09.12.2018 14:00:00 13,2 6,5 26 14 59 32 WNW 30 0,0
09.12.2018 13:00:00 13,5 6,8 26 14 67 36 WNW 36 -
09.12.2018 12:00:00 13,4 7,8 24 13 54 29 WNW 30 0,0
09.12.2018 11:00:00 12,3 7,6 22 12 59 32 W 12 0,0
09.12.2018 10:00:00 12,1 7,0 24 13 61 33 WNW 0 0,0
09.12.2018 09:00:00 11,5 6,4 18 10 54 29 W 0 0,0
09.12.2018 08:00:00 11,2 6,1 24 13 54 29 W 0 0,0
09.12.2018 07:00:00 10,8 4,7 22 12 52 28 W 0 -
09.12.2018 06:00:00 10,6 6,3 21 11 61 33 W 0 0,0
09.12.2018 05:00:00 10,9 7,0 16 9 59 32 WNW 0 0,0
09.12.2018 04:00:00 11,5 8,9 22 12 52 28 WNW 0 0,2
09.12.2018 03:00:00 11,0 7,9 22 12 70 38 W 0 0,4
09.12.2018 02:00:00 12,4 9,6 26 14 52 28 W 0 0,0
09.12.2018 01:00:00 12,7 9,0 26 14 61 33 W 0 -
09.12.2018 00:00:00 13,0 10,0 26 14 57 31 W 0 0,0
08.12.2018 23:00:00 13,0 9,8 29 16 67 36 W 0 0,0
08.12.2018 22:00:00 12,9 9,5 26 14 59 32 W 0 0,0
08.12.2018 21:00:00 13,1 10,5 24 13 59 32 W 0 0,0
08.12.2018 20:00:00 13,2 11,1 26 14 55 30 W 0 0,0
08.12.2018 19:00:00 13,1 11,3 24 13 54 29 W 0 -
08.12.2018 18:00:00 13,2 11,8 28 15 63 34 W 0 0,2
08.12.2018 17:00:00 12,9 12,6 31 17 67 36 W 0 0,2
08.12.2018 16:00:00 12,5 12,2 31 17 65 35 WSW 0 0,6
08.12.2018 15:00:00 12,2 11,6 29 16 65 35 WSW 0 0,2
08.12.2018 14:00:00 12,1 11,5 29 16 57 31 WSW 0 0,8
08.12.2018 13:00:00 12,0 11,1 24 13 55 30 WSW 0 -
08.12.2018 12:00:00 11,8 10,5 28 15 54 29 WSW 0 0,2
08.12.2018 11:00:00 12,2 9,9 24 13 52 28 WSW 0 0,0
08.12.2018 10:00:00 12,0 9,6 18 10 41 22 W 0 0,0
08.12.2018 09:00:00 11,9 9,1 21 11 54 29 W 0 0,0
08.12.2018 08:00:00 11,9 8,4 22 12 48 26 W 0 0,0
08.12.2018 07:00:00 11,8 7,7 21 11 44 24 W 0 -
08.12.2018 06:00:00 10,9 7,2 16 9 41 22 W 0 0,0
08.12.2018 05:00:00 10,8 7,3 18 10 44 24 W 0 0,0
08.12.2018 04:00:00 11,2 7,1 21 11 46 25 W 0 0,0
08.12.2018 03:00:00 10,8 7,1 21 11 50 27 W 0 0,0
08.12.2018 02:00:00 11,1 6,6 24 13 54 29 W 0 0,0
08.12.2018 01:00:00 10,9 7,0 18 10 48 26 W 0 -
08.12.2018 00:00:00 10,5 7,0 16 9 48 26 W 0 0,2
07.12.2018 23:00:00 10,7 6,8 18 10 48 26 W 0 0,0
07.12.2018 22:00:00 10,4 6,3 18 10 41 22 W 0 0,0
07.12.2018 21:00:00 9,7 6,4 13 7 41 22 W 0 0,0
07.12.2018 20:00:00 9,2 5,6 16 9 48 26 W 0 0,0
07.12.2018 19:00:00 9,5 4,3 15 8 41 22 W 0 -
07.12.2018 18:00:00 9,8 3,7 16 9 55 30 W 0 0,0
07.12.2018 17:00:00 10,8 4,9 21 11 55 30 W 6 0,0
07.12.2018 16:00:00 11,3 5,8 21 11 52 28 W 60 0,0
07.12.2018 15:00:00 10,2 5,0 22 12 85 46 WNW 48 0,0
07.12.2018 14:00:00 12,4 5,5 28 15 74 40 W 48 0,0
07.12.2018 13:00:00 12,2 9,0 22 12 44 24 W 18 -
07.12.2018 12:00:00 11,1 9,8 16 9 48 26 W 0 1,0
07.12.2018 11:00:00 12,0 11,2 22 12 74 40 W 0 3,0
07.12.2018 10:00:00 13,3 12,7 28 15 55 30 SW 0 0,2
07.12.2018 09:00:00 12,9 12,4 24 13 55 30 SW 0 2,0
07.12.2018 08:00:00 13,2 11,8 22 12 50 27 SW 0 0,0
07.12.2018 07:00:00 13,3 11,2 22 12 46 25 SW 0 -
07.12.2018 06:00:00 13,0 11,4 18 10 42 23 SW 0 0,0
07.12.2018 05:00:00 13,0 11,7 18 10 46 25 SW 0 0,0
07.12.2018 04:00:00 12,7 11,8 24 13 44 24 SW 0 0,0
07.12.2018 03:00:00 12,3 11,8 21 11 37 20 SW 0 0,0
07.12.2018 02:00:00 12,3 12,1 16 9 37 20 SW 0 0,2
07.12.2018 01:00:00 12,5 12,3 16 9 50 27 SW 0 -
07.12.2018 00:00:00 12,5 12,2 18 10 41 22 WSW 0 0,2
06.12.2018 23:00:00 12,5 12,2 15 8 37 20 SW 0 0,4
06.12.2018 22:00:00 12,6 12,1 18 10 37 20 WSW 0 0,0
06.12.2018 21:00:00 12,6 12,1 15 8 34 18 WSW 0 0,0
06.12.2018 20:00:00 12,5 11,9 15 8 34 18 WSW 0 0,0

tt = Température de l'air
td = dewpoint
ff = Vitesse du vent
fx = gusts
dd = Direction du vent
sd = Ensoleillement
rr = Quantités de précipitations

stations d'obs. à proximité